TRAVEL WEATHER INFO - USA

NOAA Site Locator - Search for Station Information

CITY Forecast Link METAR Identifier Last Updated Temperature Dew Point Humidity Pressure Wind Direction Wind Speed Wind Gust Weather Rain/hr Google Maps
Albuqueque WEATHER KABQ 11/15/2018 07:52 32.0 15.8 51 30.31 NNE 4 4 Few Clouds --- Albuquerque, NM Map
Anchorage WEATHER PAED 11/15/2018 08:26 15.8 15.8 100 30.07 --- 0 0 --- Anchorage, AK Map
Atlanta WEATHER KATL 11/15/2018 07:52 42.8 39.2 87 30.09 ENE 8 8 Overcast 0.00 ATLANTA, GA Map
Birmingham WEATHER KBHM 11/15/2018 08:42 30.2 28.4 93 30.22 W 9 9 0.00 Birmingham, AL Map
Boston WEATHER KBOS 11/15/2018 07:54 24.8 6.8 46 30.63 N 6 6 Overcast --- BOSTON, MA Map
Cheyenne WEATHER KCYS 11/15/2018 08:53 41.0 17.6 38 30.15 WNW 18 18 Clear --- Cheyenne, WY Map
Chicago O'Hare WEATHER KORD 11/15/2018 07:51 32.0 24.8 74 30.15 E 4 4 Overcast --- CHICAGO, IL Map
Colorado Springs WEATHER KCOS 11/15/2018 07:54 42.8 14.0 31 30.15 NNW 11 11 Few Clouds --- Colo. Springs, CO Map
Dallas WEATHER KADS 11/15/2018 07:47 35.6 24.8 64 30.27 --- 0 0 Clear --- Dallas, TX Map
Denver WEATHER KDEN 11/15/2018 07:53 42.8 17.6 36 30.10 SSW 16 16 Few Clouds --- DENVER, CO Map
Detroit WEATHER KDET 11/15/2018 07:53 33.8 24.8 69 30.22 E 6 6 Clear --- Detroit, MI Map
Dover WEATHER KDOV 11/15/2018 08:56 37.4 28.4 70 30.43 NNE 12 12 Few Clouds 0.00 DOVER, DE Map
Fort Lauderdale WEATHER KFXE 11/15/2018 07:53 80.6 78.8 94 29.97 SSE 3 3 Scattered Clouds --- Fort Lauderdale, FL Map
Honolulu WEATHER PHNL 11/15/2018 08:53 73.4 66.2 78 29.99 N 0 0 Scattered Clouds --- Honolulu, HI Map
JFK Airport WEATHER KJFK 11/15/2018 07:51 32.0 17.6 55 30.57 NE 12 12 Overcast --- JFK Airport, NYC Map
Key West WEATHER KEYW 11/15/2018 08:37 78.8 73.4 84 30.00 NNW 11 11 Broken Clouds --- Key West, FL Map
Los Angeles WEATHER KLAX 11/15/2018 07:53 55.4 24.8 30 30.09 --- 0 0 Few Clouds --- Los Angeles, CA Map
Louisville WEATHER KSDF 11/15/2018 08:34 33.8 32.0 93 30.09 SSE 4 4 0.00 Louisville, KY Map
Minneapolis WEATHER KMSP 11/15/2018 07:53 28.4 19.4 69 29.94 S 10 10 Scattered Clouds --- Minneapolis, MN Map
Morgantown WEATHER KMGW 11/15/2018 08:44 33.8 30.2 86 30.21 N 4 4 Overcast 0.04 Morgantown, WV Map
New Orleans WEATHER KNEW 11/15/2018 07:53 37.4 30.2 75 30.32 NNW 18 18 Clear --- New Orleans, LA Map
New York City WEATHER KNYC 11/15/2018 07:51 32.0 15.8 51 30.58 --- --- Clear --- New York, NY Map
Omaha WEATHER KOMA 11/15/2018 07:52 28.4 19.4 69 30.03 S 10 10 Clear --- Omaha, NE Map
Philadelphia WEATHER KPHL 11/15/2018 07:54 33.8 17.6 51 30.53 ENE 10 10 Overcast --- Philadelphia, PA Map
Pittsburgh WEATHER KPIT 11/15/2018 08:51 30.2 28.4 93 30.24 ESE 9 9 0.05 Pittsburgh, PA Map
Seattle WEATHER KSEA 11/15/2018 08:24 48.2 46.4 93 30.37 --- 0 0 Overcast --- Seattle, WA Map
San Francisco WEATHER KSFO 11/15/2018 08:56 44.6 35.6 70 30.16 SSW 3 3 --- San Francisco, CA Map
Washington DC WEATHER KDCA 11/15/2018 08:10 32.0 32.0 100 30.45 NE 13 13 0.04 Washington, DC Map